createdAt,value
2023-05-15T00:00:14.826Z,0.20
2023-05-15T00:01:51.185Z,0.10
2023-05-15T00:03:26.670Z,0.10
2023-05-15T00:05:00.734Z,0.20
2023-05-15T00:06:34.715Z,0.20
2023-05-15T00:08:08.285Z,0.20
2023-05-15T00:09:42.031Z,0.10
2023-05-15T00:11:15.285Z,0.10
2023-05-15T00:12:48.876Z,0.20
2023-05-15T00:14:22.524Z,0.20
2023-05-15T00:15:56.147Z,0.20
2023-05-15T00:17:29.722Z,0.20
2023-05-15T00:19:03.389Z,0.20
2023-05-15T00:20:37.158Z,0.20
2023-05-15T00:22:10.608Z,0.20
2023-05-15T00:23:44.073Z,0.15
2023-05-15T00:25:19.913Z,0.20
2023-05-15T00:26:54.239Z,0.20
2023-05-15T00:28:27.885Z,0.15
2023-05-15T00:30:03.223Z,0.20
2023-05-15T00:31:36.852Z,0.13
2023-05-15T00:33:10.526Z,0.20
2023-05-15T00:34:44.630Z,0.20
2023-05-15T00:36:18.375Z,0.20
2023-05-15T00:37:52.363Z,0.10
2023-05-15T00:39:26.297Z,0.20
2023-05-15T00:41:03.119Z,0.20
2023-05-15T00:42:36.944Z,0.20
2023-05-15T00:44:12.078Z,0.20
2023-05-15T00:45:47.124Z,0.10
2023-05-15T00:47:22.209Z,0.10
2023-05-15T00:48:58.116Z,0.20
2023-05-15T00:50:33.850Z,0.20
2023-05-15T00:52:09.212Z,0.20
2023-05-15T00:53:44.860Z,0.20
2023-05-15T00:55:18.719Z,0.10
2023-05-15T00:56:53.256Z,0.10
2023-05-15T00:58:29.390Z,0.20
2023-05-15T01:00:13.374Z,0.20
2023-05-15T01:01:46.824Z,0.20
2023-05-15T01:03:20.961Z,0.20
2023-05-15T01:04:54.866Z,0.20
2023-05-15T01:06:30.652Z,0.20
2023-05-15T01:08:24.429Z,0.13
2023-05-15T01:09:59.431Z,0.20
2023-05-15T01:11:36.779Z,0.10
2023-05-15T01:13:12.356Z,0.10
2023-05-15T01:14:46.408Z,0.10
2023-05-15T01:16:22.942Z,0.10
2023-05-15T01:17:56.594Z,0.10
2023-05-15T01:19:31.308Z,0.20
2023-05-15T01:21:10.697Z,0.10
2023-05-15T01:23:10.281Z,0.10
2023-05-15T01:25:06.852Z,0.10
2023-05-15T01:27:07.808Z,0.10
2023-05-15T01:28:49.163Z,0.10
2023-05-15T01:30:31.641Z,0.10
2023-05-15T01:32:19.144Z,0.10
2023-05-15T01:33:59.845Z,0.10
2023-05-15T01:36:12.412Z,0.10
2023-05-15T01:37:50.509Z,0.10
2023-05-15T01:39:27.776Z,0.10
2023-05-15T01:41:30.223Z,0.10
2023-05-15T01:43:10.370Z,0.10
2023-05-15T01:44:54.261Z,0.10
2023-05-15T01:46:31.441Z,0.10
2023-05-15T01:48:09.457Z,0.10
2023-05-15T01:49:46.089Z,0.10
2023-05-15T01:51:21.857Z,0.10
2023-05-15T01:52:59.095Z,0.10
2023-05-15T01:54:34.394Z,0.10
2023-05-15T01:56:09.886Z,0.10
2023-05-15T01:57:45.938Z,0.10
2023-05-15T01:59:21.818Z,0.10
2023-05-15T02:00:56.691Z,0.00
2023-05-15T02:02:31.395Z,0.10
2023-05-15T02:04:05.458Z,0.00
2023-05-15T02:05:39.603Z,0.10
2023-05-15T02:07:14.625Z,0.10
2023-05-15T02:08:49.524Z,0.10
2023-05-15T02:10:23.692Z,0.10
2023-05-15T02:12:05.848Z,0.10
2023-05-15T02:13:40.925Z,0.03
2023-05-15T02:15:16.135Z,0.10
2023-05-15T02:16:49.406Z,0.10
2023-05-15T02:18:23.811Z,0.00
2023-05-15T02:19:57.281Z,0.10
2023-05-15T02:21:31.147Z,0.00
2023-05-15T02:23:04.968Z,0.00
2023-05-15T02:24:38.901Z,0.00
2023-05-15T02:26:31.348Z,0.10
2023-05-15T02:28:07.471Z,0.00
2023-05-15T02:30:08.387Z,0.00
2023-05-15T02:31:53.308Z,0.00
2023-05-15T02:34:04.553Z,0.00
2023-05-15T02:35:47.228Z,0.00
2023-05-15T02:37:28.774Z,0.00
2023-05-15T02:39:12.194Z,0.00
2023-05-15T02:40:49.048Z,0.00
2023-05-15T02:42:23.319Z,0.00
2023-05-15T02:43:57.588Z,0.00
2023-05-15T02:45:32.044Z,0.00
2023-05-15T02:47:06.799Z,0.00
2023-05-15T02:48:42.957Z,0.00
2023-05-15T02:50:16.673Z,0.00
2023-05-15T02:51:50.759Z,0.00
2023-05-15T02:53:24.130Z,0.00
2023-05-15T02:54:57.626Z,0.00
2023-05-15T02:56:31.366Z,0.00
2023-05-15T02:58:05.366Z,0.00
2023-05-15T02:59:38.948Z,0.00
2023-05-15T03:01:12.973Z,0.00
2023-05-15T03:02:46.357Z,0.00
2023-05-15T03:04:21.582Z,0.00
2023-05-15T03:05:55.385Z,0.00
2023-05-15T03:07:28.968Z,0.00
2023-05-15T03:09:02.908Z,0.00
2023-05-15T03:10:36.352Z,0.00
2023-05-15T03:12:11.535Z,0.00
2023-05-15T03:13:44.951Z,0.00
2023-05-15T03:15:18.613Z,0.00
2023-05-15T03:16:51.922Z,0.00
2023-05-15T03:18:25.494Z,0.00
2023-05-15T03:19:58.514Z,0.00
2023-05-15T03:21:32.191Z,0.00
2023-05-15T03:23:05.886Z,0.00
2023-05-15T03:24:39.493Z,0.00
2023-05-15T03:26:12.831Z,0.00
2023-05-15T03:27:46.656Z,0.00
2023-05-15T03:29:20.927Z,0.00
2023-05-15T03:30:54.815Z,0.00
2023-05-15T03:32:28.111Z,0.00
2023-05-15T03:34:01.514Z,0.00
2023-05-15T03:35:35.986Z,0.00
2023-05-15T03:37:09.451Z,0.00
2023-05-15T03:38:44.359Z,0.00
2023-05-15T03:40:18.071Z,0.00
2023-05-15T03:41:52.477Z,0.00
2023-05-15T03:43:28.812Z,0.00
2023-05-15T03:45:02.184Z,0.00
2023-05-15T03:46:35.727Z,0.00
2023-05-15T03:48:09.327Z,0.00
2023-05-15T03:49:43.204Z,0.00
2023-05-15T03:51:16.798Z,0.00
2023-05-15T03:52:50.652Z,0.00
2023-05-15T03:54:25.029Z,0.00
2023-05-15T03:56:00.060Z,0.00
2023-05-15T03:57:33.746Z,0.00
2023-05-15T03:59:07.939Z,0.00
2023-05-15T04:00:41.827Z,0.00
2023-05-15T04:02:15.594Z,0.00
2023-05-15T04:03:49.670Z,0.00
2023-05-15T04:05:23.267Z,0.00
2023-05-15T04:06:56.872Z,0.00
2023-05-15T04:08:30.808Z,0.00
2023-05-15T04:10:04.875Z,0.00
2023-05-15T04:11:38.966Z,0.00
2023-05-15T04:13:12.785Z,0.00
2023-05-15T04:14:46.509Z,0.00
2023-05-15T04:16:20.239Z,0.00
2023-05-15T04:17:54.948Z,0.00
2023-05-15T04:19:28.452Z,0.00
2023-05-15T04:21:02.121Z,0.00
2023-05-15T04:22:35.698Z,0.00
2023-05-15T04:24:09.303Z,0.00
2023-05-15T04:25:47.184Z,0.00
2023-05-15T04:27:20.695Z,0.00
2023-05-15T04:29:03.353Z,0.00
2023-05-15T04:30:37.924Z,0.00
2023-05-15T04:32:13.192Z,0.00
2023-05-15T04:33:46.859Z,0.00
2023-05-15T04:35:20.562Z,0.00
2023-05-15T04:36:53.997Z,0.00
2023-05-15T04:38:27.788Z,0.00
2023-05-15T04:40:01.707Z,0.00
2023-05-15T04:41:37.155Z,0.00
2023-05-15T04:43:10.495Z,0.00
2023-05-15T04:44:45.058Z,0.00
2023-05-15T04:46:18.528Z,0.00
2023-05-15T04:47:52.147Z,0.00
2023-05-15T04:49:25.603Z,0.00
2023-05-15T04:50:59.176Z,0.00
2023-05-15T04:52:33.380Z,0.00
2023-05-15T04:54:07.600Z,0.00
2023-05-15T04:55:41.115Z,0.00
2023-05-15T04:57:14.899Z,0.00
2023-05-15T04:58:48.413Z,0.00
2023-05-15T05:00:25.226Z,0.00
2023-05-15T05:01:59.605Z,0.00
2023-05-15T05:03:33.194Z,0.00
2023-05-15T05:05:07.951Z,0.00
2023-05-15T05:06:41.539Z,0.00
2023-05-15T05:08:15.090Z,0.00
2023-05-15T05:09:48.604Z,0.00
2023-05-15T05:11:22.511Z,0.00
2023-05-15T05:12:56.180Z,0.00
2023-05-15T05:14:29.767Z,0.00
2023-05-15T05:16:03.191Z,0.00
2023-05-15T05:17:37.036Z,0.00
2023-05-15T05:19:10.464Z,0.00
2023-05-15T05:20:46.947Z,0.00
2023-05-15T05:22:20.843Z,0.00
2023-05-15T05:23:54.181Z,0.00
2023-05-15T05:25:27.955Z,0.00
2023-05-15T05:27:05.934Z,0.00
2023-05-15T05:28:39.442Z,0.00
2023-05-15T05:30:13.156Z,0.00
2023-05-15T05:31:47.793Z,0.00
2023-05-15T05:33:21.179Z,0.00
2023-05-15T05:34:54.815Z,0.00
2023-05-15T05:36:28.038Z,0.00
2023-05-15T05:38:01.346Z,0.00
2023-05-15T05:39:35.126Z,0.00
2023-05-15T05:41:13.834Z,0.00
2023-05-15T05:42:47.614Z,0.00
2023-05-15T05:44:20.880Z,0.00
2023-05-15T05:45:54.348Z,0.00
2023-05-15T05:47:27.807Z,0.00
2023-05-15T05:49:01.382Z,0.00
2023-05-15T05:50:34.891Z,0.00
2023-05-15T05:52:08.991Z,0.00
2023-05-15T05:53:43.713Z,0.00
2023-05-15T05:55:20.208Z,0.00
2023-05-15T05:56:54.073Z,0.00
2023-05-15T05:58:27.271Z,0.00
2023-05-15T06:00:01.168Z,0.00
2023-05-15T06:01:34.960Z,0.00
2023-05-15T06:03:08.180Z,0.00
2023-05-15T06:04:42.028Z,0.00
2023-05-15T06:06:15.304Z,0.00
2023-05-15T06:07:48.572Z,0.00
2023-05-15T06:09:21.811Z,0.00
2023-05-15T06:10:55.343Z,0.00
2023-05-15T06:12:28.365Z,0.00
2023-05-15T06:14:01.862Z,0.00
2023-05-15T06:15:35.603Z,0.00
2023-05-15T06:17:08.794Z,0.00
2023-05-15T06:18:42.334Z,0.00
2023-05-15T06:20:16.334Z,0.00
2023-05-15T06:21:49.745Z,0.00
2023-05-15T06:23:24.348Z,0.00
2023-05-15T06:24:57.675Z,0.00
2023-05-15T06:26:31.241Z,0.00
2023-05-15T06:28:04.429Z,0.00
2023-05-15T06:29:37.846Z,0.00
2023-05-15T06:31:11.148Z,0.00
2023-05-15T06:32:44.364Z,0.00
2023-05-15T06:34:17.698Z,0.00
2023-05-15T06:35:51.343Z,0.00
2023-05-15T06:37:24.824Z,0.00
2023-05-15T06:38:58.379Z,0.00
2023-05-15T06:40:31.867Z,0.00
2023-05-15T06:42:06.098Z,0.00
2023-05-15T06:43:41.333Z,0.00
2023-05-15T06:45:14.788Z,0.00
2023-05-15T06:46:48.349Z,0.00
2023-05-15T06:48:21.771Z,0.00
2023-05-15T06:49:55.959Z,0.00
2023-05-15T06:51:29.333Z,0.00
2023-05-15T06:53:02.653Z,0.00
2023-05-15T06:54:36.066Z,0.00
2023-05-15T06:56:09.439Z,0.00
2023-05-15T06:57:43.098Z,0.00
2023-05-15T06:59:16.478Z,0.00
2023-05-15T07:00:49.724Z,0.00
2023-05-15T07:02:23.111Z,0.00
2023-05-15T07:03:56.374Z,0.00
2023-05-15T07:05:32.059Z,0.00
2023-05-15T07:07:05.578Z,0.00
2023-05-15T07:08:38.733Z,0.00
2023-05-15T07:10:12.112Z,0.00
2023-05-15T07:11:45.882Z,0.00
2023-05-15T07:13:21.015Z,0.00
2023-05-15T07:14:54.564Z,0.00
2023-05-15T07:16:28.392Z,0.00
2023-05-15T07:18:02.076Z,0.00
2023-05-15T07:19:35.967Z,0.00
2023-05-15T07:21:09.626Z,0.00
2023-05-15T07:22:55.093Z,0.00
2023-05-15T07:24:29.850Z,0.00
2023-05-15T07:26:04.463Z,0.00
2023-05-15T07:27:38.627Z,0.00
2023-05-15T07:29:12.837Z,0.00
2023-05-15T07:30:46.390Z,0.00
2023-05-15T07:32:20.402Z,0.00
2023-05-15T07:33:53.580Z,0.00
2023-05-15T07:35:27.544Z,0.00
2023-05-15T07:37:01.196Z,0.00
2023-05-15T07:38:34.836Z,0.00
2023-05-15T07:40:08.875Z,0.00
2023-05-15T07:41:42.312Z,0.00
2023-05-15T07:43:15.573Z,0.00
2023-05-15T07:44:52.117Z,0.00
2023-05-15T07:46:26.480Z,0.00
2023-05-15T07:48:00.169Z,0.00
2023-05-15T07:49:33.410Z,0.00
2023-05-15T07:51:07.072Z,0.00
2023-05-15T07:52:42.765Z,0.00
2023-05-15T07:54:16.409Z,0.00
2023-05-15T07:55:49.718Z,0.00
2023-05-15T07:57:23.580Z,0.00
2023-05-15T07:58:57.816Z,0.00
2023-05-15T08:00:32.189Z,0.00
2023-05-15T08:02:07.180Z,0.00
2023-05-15T08:03:40.240Z,0.00
2023-05-15T08:05:13.419Z,0.00
2023-05-15T08:06:46.377Z,0.00
2023-05-15T08:08:19.167Z,0.00
2023-05-15T08:09:52.229Z,0.00
2023-05-15T08:11:25.846Z,0.00
2023-05-15T08:12:59.738Z,0.00
2023-05-15T08:14:33.635Z,0.00
2023-05-15T08:16:07.330Z,0.00
2023-05-15T08:17:41.295Z,0.00
2023-05-15T08:19:18.288Z,0.00
2023-05-15T08:20:52.672Z,0.00
2023-05-15T08:22:25.903Z,0.00
2023-05-15T08:24:00.737Z,0.00
2023-05-15T08:25:33.924Z,0.00
2023-05-15T08:27:08.742Z,0.00
2023-05-15T08:28:41.870Z,0.00
2023-05-15T08:30:14.855Z,0.00
2023-05-15T08:31:48.444Z,0.00
2023-05-15T08:33:21.629Z,0.00
2023-05-15T08:34:54.861Z,0.00
2023-05-15T08:36:28.496Z,0.00
2023-05-15T08:38:02.299Z,0.00
2023-05-15T08:39:35.673Z,0.00
2023-05-15T08:41:23.549Z,0.00
2023-05-15T08:43:15.379Z,0.00
2023-05-15T08:44:49.137Z,0.00
2023-05-15T08:46:24.050Z,0.00
2023-05-15T08:48:01.191Z,0.00
2023-05-15T08:49:42.149Z,0.00
2023-05-15T08:51:16.921Z,0.00
2023-05-15T08:52:52.012Z,0.00
2023-05-15T08:54:26.392Z,0.00
2023-05-15T08:56:00.034Z,0.00
2023-05-15T08:57:34.355Z,0.00
2023-05-15T08:59:10.018Z,0.00
2023-05-15T09:00:50.441Z,0.00
2023-05-15T09:02:26.202Z,0.00
2023-05-15T09:03:59.554Z,0.00
2023-05-15T09:05:33.394Z,0.00
2023-05-15T09:07:07.333Z,0.00
2023-05-15T09:08:42.173Z,0.00
2023-05-15T09:10:16.749Z,0.00
2023-05-15T09:11:51.529Z,0.00
2023-05-15T09:13:25.244Z,0.00
2023-05-15T09:15:22.694Z,0.00
2023-05-15T09:16:56.202Z,0.00
2023-05-15T09:18:30.916Z,0.00
2023-05-15T09:20:08.760Z,0.00
2023-05-15T09:21:42.577Z,0.00
2023-05-15T09:23:42.068Z,0.00
2023-05-15T09:25:43.159Z,0.00
2023-05-15T09:27:17.350Z,0.00
2023-05-15T09:29:03.437Z,0.00
2023-05-15T09:30:42.078Z,0.00
2023-05-15T09:32:16.078Z,0.00
2023-05-15T09:34:01.897Z,0.00
2023-05-15T09:35:37.947Z,0.00
2023-05-15T09:37:30.382Z,0.00
2023-05-15T09:39:03.727Z,0.00
2023-05-15T09:40:37.230Z,0.00
2023-05-15T09:42:12.820Z,0.00
2023-05-15T09:43:46.778Z,0.00
2023-05-15T09:45:21.557Z,0.00
2023-05-15T09:46:54.915Z,0.00
2023-05-15T09:48:29.619Z,0.00
2023-05-15T09:50:03.551Z,0.00
2023-05-15T09:51:38.804Z,0.00
2023-05-15T09:53:14.226Z,0.00
2023-05-15T09:54:50.132Z,0.00
2023-05-15T09:56:25.110Z,0.00
2023-05-15T09:58:12.490Z,0.00
2023-05-15T09:59:50.173Z,0.00
2023-05-15T10:01:24.488Z,0.00
2023-05-15T10:03:08.778Z,0.00
2023-05-15T10:04:42.558Z,0.00
2023-05-15T10:06:20.275Z,0.00
2023-05-15T10:07:57.603Z,0.00
2023-05-15T10:09:34.073Z,0.00
2023-05-15T10:11:07.971Z,0.00
2023-05-15T10:12:41.294Z,0.00
2023-05-15T10:14:15.329Z,0.00
2023-05-15T10:15:50.327Z,0.00
2023-05-15T10:17:23.982Z,0.00
2023-05-15T10:18:58.897Z,0.00
2023-05-15T10:20:33.631Z,0.00
2023-05-15T10:22:09.417Z,0.00
2023-05-15T10:23:44.158Z,0.00
2023-05-15T10:25:24.650Z,0.00
2023-05-15T10:26:59.176Z,0.00
2023-05-15T10:28:33.819Z,0.00
2023-05-15T10:30:10.211Z,0.00
2023-05-15T10:31:43.567Z,0.00
2023-05-15T10:33:16.987Z,0.00
2023-05-15T10:34:51.677Z,0.00
2023-05-15T10:36:26.047Z,0.00
2023-05-15T10:37:59.759Z,0.00
2023-05-15T10:39:36.202Z,0.00
2023-05-15T10:41:17.720Z,0.00
2023-05-15T10:42:51.771Z,0.00
2023-05-15T10:44:24.892Z,0.00
2023-05-15T10:45:58.705Z,0.00
2023-05-15T10:47:33.756Z,0.00
2023-05-15T10:49:07.415Z,0.00
2023-05-15T10:50:41.514Z,0.00
2023-05-15T10:52:16.713Z,0.00
2023-05-15T10:53:52.893Z,0.00
2023-05-15T10:55:26.042Z,0.00
2023-05-15T10:56:59.033Z,0.00
2023-05-15T10:58:33.347Z,0.00
2023-05-15T11:00:29.627Z,0.00
2023-05-15T11:02:23.517Z,0.00
2023-05-15T11:04:09.807Z,0.00
2023-05-15T11:06:11.575Z,0.00
2023-05-15T11:07:44.764Z,0.00
2023-05-15T11:09:29.829Z,0.00
2023-05-15T11:11:02.827Z,0.00
2023-05-15T11:12:57.268Z,0.00
2023-05-15T11:14:56.080Z,0.00
2023-05-15T11:16:54.340Z,0.00
2023-05-15T11:18:27.883Z,0.00
2023-05-15T11:20:01.748Z,0.00
2023-05-15T11:21:46.742Z,0.00
2023-05-15T11:23:23.965Z,0.00
2023-05-15T11:25:14.621Z,0.00
2023-05-15T11:26:59.252Z,0.00
2023-05-15T11:28:42.975Z,0.00
2023-05-15T11:30:23.019Z,0.00
2023-05-15T11:31:56.528Z,0.00
2023-05-15T11:33:31.844Z,0.00
2023-05-15T11:35:05.677Z,0.00
2023-05-15T11:36:41.703Z,0.00
2023-05-15T11:38:25.250Z,0.00
2023-05-15T11:39:59.050Z,0.00
2023-05-15T11:41:32.650Z,0.00
2023-05-15T11:43:08.935Z,0.00
2023-05-15T11:44:42.148Z,0.00
2023-05-15T11:46:16.018Z,0.00
2023-05-15T11:47:50.486Z,0.00
2023-05-15T11:49:25.606Z,0.00
2023-05-15T11:50:59.539Z,0.00
2023-05-15T11:52:33.318Z,0.00
2023-05-15T11:54:08.064Z,0.00
2023-05-15T11:55:44.008Z,0.00
2023-05-15T11:57:17.141Z,0.00
2023-05-15T11:58:57.231Z,0.00
2023-05-15T12:00:31.502Z,0.00
2023-05-15T12:02:06.749Z,0.00
2023-05-15T12:03:40.604Z,0.00
2023-05-15T12:05:14.386Z,0.00
2023-05-15T12:06:49.862Z,0.00
2023-05-15T12:08:23.461Z,0.00
2023-05-15T12:09:56.751Z,0.00
2023-05-15T12:11:30.006Z,0.00
2023-05-15T12:13:03.615Z,0.00
2023-05-15T12:14:36.956Z,0.00
2023-05-15T12:16:10.193Z,0.00
2023-05-15T12:17:44.829Z,0.00
2023-05-15T12:19:17.967Z,0.00
2023-05-15T12:20:53.514Z,0.00
2023-05-15T12:22:26.486Z,0.00
2023-05-15T12:24:07.782Z,0.00
2023-05-15T12:25:42.596Z,0.00
2023-05-15T12:27:16.532Z,0.00
2023-05-15T12:28:51.203Z,0.00
2023-05-15T12:30:25.011Z,0.00
2023-05-15T12:31:58.519Z,0.00
2023-05-15T12:33:31.868Z,0.00
2023-05-15T12:35:05.505Z,0.00
2023-05-15T12:36:43.184Z,0.00
2023-05-15T12:38:19.790Z,0.00
2023-05-15T12:40:01.331Z,0.00
2023-05-15T12:41:39.300Z,0.00
2023-05-15T12:43:13.525Z,0.00
2023-05-15T12:44:46.625Z,0.00
2023-05-15T12:46:24.109Z,0.00
2023-05-15T12:47:59.220Z,0.00
2023-05-15T12:49:36.965Z,0.00
2023-05-15T12:51:10.161Z,0.00
2023-05-15T12:52:59.813Z,0.00
2023-05-15T12:54:41.582Z,0.00
2023-05-15T12:56:17.879Z,0.00
2023-05-15T12:57:51.696Z,0.00
2023-05-15T12:59:25.130Z,0.00
2023-05-15T13:00:59.033Z,0.00
2023-05-15T13:02:32.414Z,0.00
2023-05-15T13:04:06.212Z,0.00
2023-05-15T13:05:42.854Z,0.00
2023-05-15T13:07:19.272Z,0.00
2023-05-15T13:08:54.536Z,0.00
2023-05-15T13:10:28.081Z,0.00
2023-05-15T13:12:04.766Z,0.00
2023-05-15T13:13:46.508Z,0.00
2023-05-15T13:15:37.186Z,0.00
2023-05-15T13:17:10.873Z,0.00
2023-05-15T13:18:43.991Z,0.00
2023-05-15T13:20:17.259Z,0.00
2023-05-15T13:21:51.385Z,0.00
2023-05-15T13:23:25.198Z,0.00
2023-05-15T13:24:59.300Z,0.00
2023-05-15T13:26:32.977Z,0.00
2023-05-15T13:28:08.108Z,0.00
2023-05-15T13:29:41.460Z,0.00
2023-05-15T13:31:15.037Z,0.00
2023-05-15T13:32:49.047Z,0.00
2023-05-15T13:34:22.463Z,0.00
2023-05-15T13:35:57.768Z,0.00
2023-05-15T13:37:31.377Z,0.00
2023-05-15T13:39:05.024Z,0.00
2023-05-15T13:40:38.499Z,0.00
2023-05-15T13:42:12.196Z,0.00
2023-05-15T13:43:48.165Z,0.00
2023-05-15T13:45:21.663Z,0.00
2023-05-15T13:46:54.969Z,0.00
2023-05-15T13:48:28.621Z,0.00
2023-05-15T13:50:03.994Z,0.00
2023-05-15T13:51:37.994Z,0.00
2023-05-15T13:53:17.109Z,0.00
2023-05-15T13:54:51.073Z,0.00
2023-05-15T13:56:24.690Z,0.00
2023-05-15T13:57:58.457Z,0.00
2023-05-15T13:59:31.990Z,0.00
2023-05-15T14:01:09.985Z,0.00
2023-05-15T14:02:44.240Z,0.00
2023-05-15T14:04:18.200Z,0.00
2023-05-15T14:05:52.253Z,0.00
2023-05-15T14:07:25.963Z,0.00
2023-05-15T14:08:59.295Z,0.00
2023-05-15T14:10:32.487Z,0.00
2023-05-15T14:12:05.532Z,0.00
2023-05-15T14:13:38.804Z,0.00
2023-05-15T14:15:12.727Z,0.00
2023-05-15T14:16:48.944Z,0.00
2023-05-15T14:18:22.668Z,0.00
2023-05-15T14:19:56.533Z,0.00
2023-05-15T14:21:29.913Z,0.00
2023-05-15T14:23:03.285Z,0.00
2023-05-15T14:24:36.724Z,0.00
2023-05-15T14:26:10.647Z,0.00
2023-05-15T14:27:44.160Z,0.00
2023-05-15T14:29:18.275Z,0.00
2023-05-15T14:30:52.081Z,0.00
2023-05-15T14:32:26.008Z,0.00
2023-05-15T14:33:59.635Z,0.00
2023-05-15T14:35:33.473Z,0.00
2023-05-15T14:37:07.006Z,0.00
2023-05-15T14:38:40.680Z,0.00
2023-05-15T14:40:14.373Z,0.00
2023-05-15T14:41:48.560Z,0.00
2023-05-15T14:43:21.963Z,0.00
2023-05-15T14:44:55.944Z,0.00
2023-05-15T14:46:29.450Z,0.00
2023-05-15T14:48:02.704Z,0.00
2023-05-15T14:49:37.100Z,0.00
2023-05-15T14:51:12.124Z,0.00
2023-05-15T14:52:45.530Z,0.00
2023-05-15T14:54:18.830Z,0.00
2023-05-15T14:55:52.181Z,0.00
2023-05-15T14:57:26.526Z,0.00
2023-05-15T14:59:00.131Z,0.00
2023-05-15T15:00:33.507Z,0.00
2023-05-15T15:02:07.541Z,0.00
2023-05-15T15:03:42.951Z,0.00
2023-05-15T15:05:16.537Z,0.00
2023-05-15T15:06:50.165Z,0.00
2023-05-15T15:08:23.841Z,0.00
2023-05-15T15:09:57.418Z,0.00
2023-05-15T15:11:30.732Z,0.00
2023-05-15T15:13:05.537Z,0.00
2023-05-15T15:14:39.034Z,0.00
2023-05-15T15:16:12.299Z,0.00
2023-05-15T15:17:45.729Z,0.00
2023-05-15T15:19:20.285Z,0.00
2023-05-15T15:20:53.942Z,0.00
2023-05-15T15:22:29.570Z,0.00
2023-05-15T15:24:03.289Z,0.00
2023-05-15T15:25:36.705Z,0.00
2023-05-15T15:27:09.834Z,0.00
2023-05-15T15:28:43.414Z,0.00
2023-05-15T15:30:17.740Z,0.05
2023-05-15T15:31:51.422Z,0.00
2023-05-15T15:33:24.869Z,0.00
2023-05-15T15:34:58.880Z,0.00
2023-05-15T15:36:32.253Z,0.00
2023-05-15T15:38:05.813Z,0.05
2023-05-15T15:39:39.353Z,0.00
2023-05-15T15:41:13.074Z,0.00
2023-05-15T15:42:46.527Z,0.00
2023-05-15T15:44:20.065Z,0.00
2023-05-15T15:45:55.418Z,0.00
2023-05-15T15:47:32.687Z,0.00
2023-05-15T15:49:06.921Z,0.00
2023-05-15T15:50:40.597Z,0.00
2023-05-15T15:52:14.180Z,0.00
2023-05-15T15:53:47.682Z,0.00
2023-05-15T15:55:21.154Z,0.00
2023-05-15T15:56:55.080Z,0.00
2023-05-15T15:58:28.272Z,0.00
2023-05-15T16:00:01.700Z,0.00
2023-05-15T16:01:35.109Z,0.00
2023-05-15T16:03:08.573Z,0.00
2023-05-15T16:04:42.179Z,0.00
2023-05-15T16:06:15.535Z,0.00
2023-05-15T16:07:49.234Z,0.00
2023-05-15T16:09:22.858Z,0.00
2023-05-15T16:10:56.414Z,0.00
2023-05-15T16:12:29.726Z,0.00
2023-05-15T16:14:03.053Z,0.00
2023-05-15T16:15:36.726Z,0.00
2023-05-15T16:17:10.259Z,0.00
2023-05-15T16:18:44.322Z,0.03
2023-05-15T16:20:17.871Z,0.00
2023-05-15T16:21:51.779Z,0.00
2023-05-15T16:23:25.234Z,0.00
2023-05-15T16:24:59.018Z,0.00
2023-05-15T16:26:32.754Z,0.10
2023-05-15T16:28:06.954Z,0.05
2023-05-15T16:29:41.755Z,0.00
2023-05-15T16:31:16.446Z,0.00
2023-05-15T16:32:50.822Z,0.00
2023-05-15T16:34:24.304Z,0.00
2023-05-15T16:35:58.171Z,0.10
2023-05-15T16:37:32.706Z,0.00
2023-05-15T16:39:06.163Z,0.00
2023-05-15T16:40:39.826Z,0.00
2023-05-15T16:42:13.655Z,0.00
2023-05-15T16:43:47.047Z,0.10
2023-05-15T16:45:20.261Z,0.00
2023-05-15T16:46:54.077Z,0.05
2023-05-15T16:48:28.646Z,0.00
2023-05-15T16:50:02.085Z,0.10
2023-05-15T16:51:35.978Z,0.00
2023-05-15T16:53:09.432Z,0.10
2023-05-15T16:54:43.091Z,0.00
2023-05-15T16:56:16.660Z,0.10
2023-05-15T16:57:49.920Z,0.00
2023-05-15T16:59:23.136Z,0.00
2023-05-15T17:00:56.620Z,0.10
2023-05-15T17:02:30.305Z,0.00
2023-05-15T17:04:05.432Z,0.00
2023-05-15T17:05:40.308Z,0.00
2023-05-15T17:07:13.621Z,0.00
2023-05-15T17:08:47.330Z,0.00
2023-05-15T17:10:23.981Z,0.00
2023-05-15T17:11:57.639Z,0.00
2023-05-15T17:13:31.040Z,0.00
2023-05-15T17:15:05.702Z,0.10
2023-05-15T17:16:39.036Z,0.00
2023-05-15T17:18:12.678Z,0.00
2023-05-15T17:19:46.181Z,0.00
2023-05-15T17:21:19.977Z,0.10
2023-05-15T17:22:53.068Z,0.00
2023-05-15T17:24:30.742Z,0.00
2023-05-15T17:26:11.819Z,0.00
2023-05-15T17:27:45.361Z,0.00
2023-05-15T17:29:18.656Z,0.00
2023-05-15T17:30:52.062Z,0.00
2023-05-15T17:32:25.488Z,0.03
2023-05-15T17:34:00.612Z,0.00
2023-05-15T17:35:34.088Z,0.05
2023-05-15T17:37:08.240Z,0.00
2023-05-15T17:38:41.301Z,0.00
2023-05-15T17:40:14.662Z,0.00
2023-05-15T17:41:50.458Z,0.00
2023-05-15T17:43:23.773Z,0.00
2023-05-15T17:44:57.456Z,0.00
2023-05-15T17:46:31.039Z,0.10
2023-05-15T17:48:05.345Z,0.00
2023-05-15T17:49:39.738Z,0.10
2023-05-15T17:51:13.151Z,0.00
2023-05-15T17:52:46.884Z,0.00
2023-05-15T17:54:21.195Z,0.10
2023-05-15T17:55:54.764Z,0.10
2023-05-15T17:57:28.485Z,0.00
2023-05-15T17:59:01.874Z,0.10
2023-05-15T18:00:35.809Z,0.10
2023-05-15T18:02:09.008Z,0.00
2023-05-15T18:03:43.161Z,0.10
2023-05-15T18:05:17.542Z,0.00
2023-05-15T18:06:51.629Z,0.00
2023-05-15T18:08:25.140Z,0.08
2023-05-15T18:09:58.642Z,0.10
2023-05-15T18:11:32.357Z,0.10
2023-05-15T18:13:06.021Z,0.10
2023-05-15T18:14:44.748Z,0.00
2023-05-15T18:16:22.040Z,0.10
2023-05-15T18:18:03.575Z,0.08
2023-05-15T18:20:06.703Z,0.00
2023-05-15T18:21:41.134Z,0.03
2023-05-15T18:23:15.925Z,0.10
2023-05-15T18:25:00.017Z,0.00
2023-05-15T18:26:40.293Z,0.00
2023-05-15T18:28:38.133Z,0.00
2023-05-15T18:30:13.048Z,0.00
2023-05-15T18:31:50.211Z,0.00
2023-05-15T18:33:25.261Z,0.00
2023-05-15T18:35:06.466Z,0.00
2023-05-15T18:36:41.004Z,0.00
2023-05-15T18:38:14.412Z,0.10
2023-05-15T18:40:02.641Z,0.10
2023-05-15T18:41:39.947Z,0.10
2023-05-15T18:43:17.579Z,0.00
2023-05-15T18:44:52.542Z,0.10
2023-05-15T18:46:29.366Z,0.00
2023-05-15T18:48:04.599Z,0.10
2023-05-15T18:49:51.790Z,0.00
2023-05-15T18:51:28.830Z,0.00
2023-05-15T18:53:03.816Z,0.10
2023-05-15T18:54:42.481Z,0.10
2023-05-15T18:56:31.205Z,0.00
2023-05-15T18:58:06.929Z,0.10
2023-05-15T18:59:50.500Z,0.05
2023-05-15T19:01:27.778Z,0.00
2023-05-15T19:03:01.183Z,0.00
2023-05-15T19:04:34.666Z,0.00
2023-05-15T19:06:08.310Z,0.10
2023-05-15T19:07:42.908Z,0.10
2023-05-15T19:09:26.478Z,0.00
2023-05-15T19:11:05.853Z,0.10
2023-05-15T19:12:39.168Z,0.10
2023-05-15T19:14:15.768Z,0.10
2023-05-15T19:15:55.171Z,0.10
2023-05-15T19:17:29.315Z,0.00
2023-05-15T19:19:02.973Z,0.10
2023-05-15T19:20:36.458Z,0.10
2023-05-15T19:22:10.126Z,0.10
2023-05-15T19:23:44.828Z,0.00
2023-05-15T19:25:18.204Z,0.10
2023-05-15T19:26:51.884Z,0.10
2023-05-15T19:28:25.100Z,0.10
2023-05-15T19:29:58.274Z,0.10
2023-05-15T19:31:32.420Z,0.10
2023-05-15T19:33:06.563Z,0.10
2023-05-15T19:34:39.903Z,0.00
2023-05-15T19:36:14.086Z,0.05
2023-05-15T19:37:47.876Z,0.08
2023-05-15T19:39:21.276Z,0.00
2023-05-15T19:40:54.391Z,0.05
2023-05-15T19:42:28.325Z,0.10
2023-05-15T19:44:01.995Z,0.08
2023-05-15T19:45:35.754Z,0.10
2023-05-15T19:47:10.303Z,0.00
2023-05-15T19:48:44.022Z,0.10
2023-05-15T19:50:18.561Z,0.00
2023-05-15T19:51:52.523Z,0.00
2023-05-15T19:53:27.091Z,0.10
2023-05-15T19:55:01.162Z,0.05
2023-05-15T19:56:34.784Z,0.10
2023-05-15T19:58:08.186Z,0.10
2023-05-15T19:59:41.309Z,0.10
2023-05-15T20:02:48.535Z,0.00
2023-05-15T20:04:21.994Z,0.10
2023-05-15T20:05:58.417Z,0.03
2023-05-15T20:07:32.901Z,0.00
2023-05-15T20:09:06.275Z,0.00
2023-05-15T20:10:39.148Z,0.10
2023-05-15T20:12:13.088Z,0.10
2023-05-15T20:13:46.765Z,0.00
2023-05-15T20:15:20.374Z,0.10
2023-05-15T20:16:53.804Z,0.00
2023-05-15T20:18:34.881Z,0.10
2023-05-15T20:20:11.656Z,0.10
2023-05-15T20:21:47.934Z,0.10
2023-05-15T20:23:21.833Z,0.10
2023-05-15T20:24:55.492Z,0.10
2023-05-15T20:26:29.091Z,0.10
2023-05-15T20:28:03.864Z,0.10
2023-05-15T20:29:37.575Z,0.10
2023-05-15T20:31:11.060Z,0.10
2023-05-15T20:32:44.894Z,0.10
2023-05-15T20:34:18.771Z,0.10
2023-05-15T20:35:52.626Z,0.10
2023-05-15T20:37:27.671Z,0.03
2023-05-15T20:39:07.594Z,0.10
2023-05-15T20:40:41.232Z,0.08
2023-05-15T20:42:14.750Z,0.00
2023-05-15T20:43:48.405Z,0.10
2023-05-15T20:45:22.003Z,0.10
2023-05-15T20:46:55.998Z,0.00
2023-05-15T20:48:29.511Z,0.03
2023-05-15T20:50:03.207Z,0.00
2023-05-15T20:51:37.730Z,0.10
2023-05-15T20:53:15.267Z,0.10
2023-05-15T20:54:49.094Z,0.10
2023-05-15T20:56:22.292Z,0.10
2023-05-15T20:57:55.994Z,0.10
2023-05-15T20:59:30.390Z,0.10
2023-05-15T21:01:04.218Z,0.10
2023-05-15T21:02:37.362Z,0.10
2023-05-15T21:04:10.495Z,0.10
2023-05-15T21:07:17.064Z,0.00
2023-05-15T21:08:51.622Z,0.10
2023-05-15T21:10:25.393Z,0.10
2023-05-15T21:12:00.289Z,0.10
2023-05-15T21:13:33.976Z,0.10